Time;durP1;ratioP1;P1;durP2;ratioP2;P2;SDS_P1;SDS_P2;PMS_P1;PMS_P2;Temp;Humidity;BMP_temperature;BMP_pressure;BME280_temperature;BME280_humidity;BME280_pressure;Samples;Min_cycle;Max_cycle;Signal;HPM_P1;HPM_P2
2022/10/25 00:01:52;;;;;;;2.95;2.63;;;11.00;99.90;;;;;;4971217;28;20022;-31
2022/10/25 00:04:17;;;;;;;3.67;2.47;;;11.10;99.90;;;;;;4953891;28;20030;-29
2022/10/25 00:06:43;;;;;;;4.95;2.38;;;11.00;99.90;;;;;;4971982;28;20424;-30
2022/10/25 00:09:09;;;;;;;4.57;2.25;;;11.00;99.90;;;;;;4968632;28;20042;-31
2022/10/25 00:11:34;;;;;;;3.33;2.10;;;10.90;99.90;;;;;;4972958;28;20165;-31
2022/10/25 00:14:03;;;;;;;2.92;2.30;;;10.90;99.90;;;;;;4971542;28;20748;-29
2022/10/25 00:16:34;;;;;;;6.28;2.22;;;10.90;99.90;;;;;;4971828;28;20030;-31
2022/10/25 00:19:00;;;;;;;3.13;2.00;;;10.90;99.90;;;;;;4970556;28;20031;-29
2022/10/25 00:21:25;;;;;;;2.22;1.65;;;10.90;99.90;;;;;;4975240;28;20045;-29
2022/10/25 00:23:52;;;;;;;3.25;2.10;;;10.90;99.90;;;;;;4968250;28;20412;-29
2022/10/25 00:26:17;;;;;;;1.90;1.80;;;10.90;99.90;;;;;;4972612;28;20066;-30
2022/10/25 00:28:43;;;;;;;2.60;2.13;;;10.90;99.90;;;;;;4970840;28;20114;-30
2022/10/25 00:31:11;;;;;;;2.85;1.77;;;11.00;99.90;;;;;;4970621;28;20283;-29
2022/10/25 00:33:38;;;;;;;3.13;1.90;;;10.90;99.90;;;;;;4973169;28;20041;-30
2022/10/25 00:36:13;;;;;;;3.33;2.03;;;10.90;99.90;;;;;;4969343;28;20031;-31
2022/10/25 00:38:39;;;;;;;3.10;1.70;;;10.90;99.90;;;;;;4967920;28;20047;-30
2022/10/25 00:41:06;;;;;;;3.70;1.92;;;10.80;99.90;;;;;;4972322;28;20023;-30
2022/10/25 00:43:31;;;;;;;2.53;1.88;;;10.80;99.90;;;;;;4967334;28;20038;-31
2022/10/25 00:45:58;;;;;;;2.25;1.50;;;10.80;99.90;;;;;;4971402;28;20508;-30
2022/10/25 00:48:25;;;;;;;5.13;2.20;;;10.70;99.90;;;;;;4971134;28;20039;-29
2022/10/25 00:50:53;;;;;;;5.40;2.30;;;10.60;99.90;;;;;;4969038;28;20035;-29
2022/10/25 00:53:27;;;;;;;2.05;1.80;;;10.50;99.90;;;;;;4972680;28;20089;-28
2022/10/25 00:56:09;;;;;;;2.38;1.92;;;10.40;99.90;;;;;;4970130;28;20057;-29
2022/10/25 00:58:37;;;;;;;3.63;1.80;;;10.30;99.90;;;;;;4968473;28;20035;-31
2022/10/25 01:01:06;;;;;;;2.53;1.77;;;10.30;99.90;;;;;;4970757;28;20037;-37
2022/10/25 01:03:33;;;;;;;;;;;10.20;99.90;;;;;;4969764;28;20026;-34
2022/10/25 01:06:00;;;;;;;4.20;1.88;;;10.10;99.90;;;;;;4982966;28;19979;-37
2022/10/25 01:08:26;;;;;;;5.15;1.77;;;10.10;99.90;;;;;;4969893;28;20106;-34
2022/10/25 01:10:52;;;;;;;1.90;1.55;;;10.10;99.90;;;;;;4966941;28;20031;-33
2022/10/25 01:13:17;;;;;;;1.67;1.58;;;10.10;99.90;;;;;;4968935;28;20026;-37
2022/10/25 01:16:12;;;;;;;3.75;1.75;;;10.00;99.90;;;;;;4968241;28;20061;-38
2022/10/25 01:18:49;;;;;;;3.30;1.70;;;10.00;99.90;;;;;;4962836;28;20073;-38
2022/10/25 01:21:20;;;;;;;2.03;1.80;;;10.10;99.90;;;;;;4965872;28;20081;-31
2022/10/25 01:24:25;;;;;;;2.17;1.50;;;10.10;99.90;;;;;;4970680;28;20037;-37
2022/10/25 01:27:22;;;;;;;3.13;1.70;;;10.10;99.90;;;;;;4967183;28;20039;-37
2022/10/25 01:30:13;;;;;;;2.38;1.70;;;10.10;99.90;;;;;;4967928;28;20102;-38
2022/10/25 01:33:06;;;;;;;3.10;1.67;;;10.10;99.90;;;;;;4960707;28;20043;-37
2022/10/25 01:36:00;;;;;;;1.77;1.60;;;10.10;99.90;;;;;;4970578;28;20415;-36
2022/10/25 01:38:45;;;;;;;2.38;1.23;;;10.00;99.90;;;;;;4967571;28;20034;-29
2022/10/25 01:41:36;;;;;;;2.25;1.45;;;10.00;99.90;;;;;;4968998;28;20132;-38
2022/10/25 01:44:26;;;;;;;7.07;1.73;;;9.70;99.90;;;;;;4970835;28;20088;-37
2022/10/25 01:47:03;;;;;;;1.58;1.48;;;9.50;99.90;;;;;;4969423;28;20031;-32
2022/10/25 01:49:44;;;;;;;1.40;1.30;;;9.60;99.90;;;;;;4970161;28;20037;-37
2022/10/25 01:52:10;;;;;;;2.15;1.30;;;9.60;99.90;;;;;;4967805;28;20499;-38
2022/10/25 01:54:35;;;;;;;13.85;1.73;;;9.60;99.90;;;;;;4969895;28;20034;-37
2022/10/25 01:57:10;;;;;;;2.35;1.38;;;9.50;99.90;;;;;;4972823;28;20069;-38
2022/10/25 01:59:46;;;;;;;1.40;1.30;;;9.40;99.90;;;;;;4972496;28;20387;-37
2022/10/25 02:02:21;;;;;;;2.65;1.50;;;9.40;99.90;;;;;;4968656;28;20034;-33
2022/10/25 02:05:08;;;;;;;1.90;1.13;;;9.40;99.90;;;;;;4967973;28;20510;-33
2022/10/25 02:07:40;;;;;;;2.25;1.60;;;9.50;99.90;;;;;;4967100;28;20138;-38
2022/10/25 02:10:24;;;;;;;6.32;1.45;;;9.60;99.90;;;;;;4968452;28;20129;-37
2022/10/25 02:13:11;;;;;;;2.95;1.10;;;9.50;99.90;;;;;;4968636;28;20038;-38
2022/10/25 02:15:40;;;;;;;1.00;1.00;;;9.60;99.90;;;;;;4965799;28;20160;-36
2022/10/25 02:18:19;;;;;;;1.80;1.13;;;9.60;99.90;;;;;;4972020;28;20019;-37
2022/10/25 02:20:46;;;;;;;2.25;1.30;;;9.60;99.90;;;;;;4970181;28;20034;-31
2022/10/25 02:23:14;;;;;;;1.65;1.00;;;9.60;99.90;;;;;;4974806;28;20034;-30
2022/10/25 02:25:41;;;;;;;1.30;1.15;;;9.60;99.90;;;;;;4973269;28;20027;-38
2022/10/25 02:28:10;;;;;;;1.00;1.00;;;9.60;99.90;;;;;;4973263;28;20084;-31
2022/10/25 02:30:37;;;;;;;1.08;1.08;;;9.60;99.90;;;;;;4974251;28;20031;-35
2022/10/25 02:33:03;;;;;;;1.67;1.25;;;9.70;99.90;;;;;;4971587;28;20038;-32
2022/10/25 02:35:28;;;;;;;2.17;1.20;;;9.60;99.90;;;;;;4973407;28;20027;-34
2022/10/25 02:37:54;;;;;;;1.30;1.20;;;9.70;99.90;;;;;;4970914;28;20113;-38
2022/10/25 02:40:20;;;;;;;1.58;1.30;;;9.70;99.90;;;;;;4974968;28;20030;-38
2022/10/25 02:42:46;;;;;;;2.88;1.30;;;9.70;99.90;;;;;;4973292;28;20786;-38
2022/10/25 02:45:11;;;;;;;2.10;1.20;;;9.60;99.90;;;;;;4974683;28;20161;-38
2022/10/25 02:47:37;;;;;;;1.30;1.20;;;9.60;99.90;;;;;;4975684;28;20023;-37
2022/10/25 02:50:04;;;;;;;1.73;0.95;;;9.40;99.90;;;;;;4973581;28;20441;-38
2022/10/25 02:52:30;;;;;;;8.35;1.73;;;9.30;99.90;;;;;;4973598;28;20391;-30
2022/10/25 02:54:56;;;;;;;29.92;3.90;;;9.20;99.90;;;;;;4969599;28;20030;-31
2022/10/25 02:57:21;;;;;;;2.13;1.10;;;9.10;99.90;;;;;;4969963;28;20495;-38
2022/10/25 02:59:48;;;;;;;3.80;1.05;;;9.00;99.90;;;;;;4972953;28;20062;-38
2022/10/25 03:02:13;;;;;;;1.20;1.10;;;8.90;99.90;;;;;;4972780;28;20419;-37
2022/10/25 03:04:39;;;;;;;1.45;1.13;;;8.90;99.90;;;;;;4975086;28;20042;-29
2022/10/25 03:07:05;;;;;;;1.27;1.17;;;8.90;99.90;;;;;;4971412;28;20083;-38
2022/10/25 03:09:30;;;;;;;1.50;1.13;;;8.80;99.90;;;;;;4975216;28;20041;-36
2022/10/25 03:11:56;;;;;;;1.00;1.00;;;8.70;99.90;;;;;;4973946;28;20038;-37
2022/10/25 03:14:21;;;;;;;3.72;1.50;;;8.60;99.90;;;;;;4973142;28;20037;-38
2022/10/25 03:16:47;;;;;;;1.13;1.13;;;8.60;99.90;;;;;;4969426;28;20022;-37
2022/10/25 03:19:12;;;;;;;1.90;1.30;;;8.70;99.90;;;;;;4972118;28;20055;-38
2022/10/25 03:21:38;;;;;;;2.83;1.42;;;8.70;99.90;;;;;;4970381;28;20495;-38
2022/10/25 03:24:04;;;;;;;4.40;1.30;;;8.70;99.90;;;;;;4972676;28;20560;-38
2022/10/25 03:26:30;;;;;;;5.38;1.33;;;8.80;99.90;;;;;;4971014;28;20034;-30
2022/10/25 03:28:56;;;;;;;3.78;1.10;;;8.80;99.90;;;;;;4974647;28;20047;-37
2022/10/25 03:31:21;;;;;;;2.63;0.80;;;8.70;99.90;;;;;;4973018;28;20038;-37
2022/10/25 03:33:47;;;;;;;1.50;1.05;;;8.80;99.90;;;;;;4973594;28;20030;-33
2022/10/25 03:36:14;;;;;;;2.72;0.95;;;8.70;99.90;;;;;;4970700;28;20023;-38
2022/10/25 03:38:39;;;;;;;1.92;0.90;;;8.70;99.90;;;;;;4971440;28;20153;-38
2022/10/25 03:41:05;;;;;;;8.82;1.20;;;8.60;99.90;;;;;;4972504;28;20109;-38
2022/10/25 03:43:31;;;;;;;78.00;5.65;;;8.40;99.90;;;;;;4972727;28;20035;-38
2022/10/25 03:45:57;;;;;;;1.13;1.02;;;8.20;99.90;;;;;;4970591;28;20445;-36
2022/10/25 03:48:23;;;;;;;1.08;1.08;;;8.10;99.90;;;;;;4970783;28;20045;-38
2022/10/25 03:50:48;;;;;;;1.73;1.05;;;8.00;99.90;;;;;;4971128;28;20031;-38
2022/10/25 03:53:14;;;;;;;11.82;1.95;;;8.00;99.90;;;;;;4973585;28;20042;-36
2022/10/25 03:55:39;;;;;;;28.67;3.38;;;8.10;99.90;;;;;;4971406;28;20053;-38
2022/10/25 03:58:05;;;;;;;25.13;4.13;;;8.10;99.90;;;;;;4970065;28;20027;-38
2022/10/25 04:00:31;;;;;;;19.45;2.65;;;8.00;99.90;;;;;;4975522;28;20042;-37
2022/10/25 04:02:58;;;;;;;24.77;3.85;;;8.10;99.90;;;;;;4971053;28;20752;-34
2022/10/25 04:05:24;;;;;;;34.45;3.10;;;8.00;99.90;;;;;;4974831;28;20026;-35
2022/10/25 04:07:49;;;;;;;6.18;1.63;;;8.00;99.90;;;;;;4972673;28;20039;-28
2022/10/25 04:10:16;;;;;;;1.77;1.20;;;8.10;99.90;;;;;;4972912;28;20113;-37
2022/10/25 04:12:41;;;;;;;2.55;1.40;;;8.10;99.90;;;;;;4971983;28;20065;-37
2022/10/25 04:15:08;;;;;;;1.20;1.10;;;8.10;99.90;;;;;;4969615;28;20556;-35
2022/10/25 04:17:33;;;;;;;1.45;1.20;;;8.00;99.90;;;;;;4970321;28;20515;-38
2022/10/25 04:19:59;;;;;;;6.65;1.20;;;8.00;99.90;;;;;;4971458;28;20097;-35
2022/10/25 04:22:24;;;;;;;1.55;1.10;;;8.00;99.90;;;;;;4967847;28;20035;-31
2022/10/25 04:24:50;;;;;;;1.00;1.00;;;8.00;99.90;;;;;;4972955;28;20960;-37
2022/10/25 04:27:16;;;;;;;1.10;1.00;;;8.10;99.90;;;;;;4970546;28;20034;-38
2022/10/25 04:29:42;;;;;;;0.93;0.93;;;8.20;99.90;;;;;;4967436;28;20437;-31
2022/10/25 04:32:07;;;;;;;1.83;1.17;;;8.20;99.90;;;;;;4972762;28;20050;-37
2022/10/25 04:34:33;;;;;;;1.80;1.15;;;8.20;99.90;;;;;;4971167;28;20491;-35
2022/10/25 04:36:59;;;;;;;2.45;1.23;;;8.20;99.90;;;;;;4970864;28;20035;-37
2022/10/25 04:39:27;;;;;;;1.00;1.00;;;8.20;99.90;;;;;;4970933;28;20856;-32
2022/10/25 04:41:52;;;;;;;2.17;1.02;;;8.20;99.90;;;;;;4971739;28;20116;-38
2022/10/25 04:44:18;;;;;;;0.80;0.80;;;8.10;99.90;;;;;;4970164;28;20074;-37
2022/10/25 04:46:43;;;;;;;1.33;1.10;;;8.20;99.90;;;;;;4972647;28;20042;-30
2022/10/25 04:49:12;;;;;;;3.53;1.52;;;8.20;99.90;;;;;;4968160;28;20093;-36
2022/10/25 04:51:38;;;;;;;1.77;1.58;;;8.10;99.90;;;;;;4972922;28;20035;-37
2022/10/25 04:54:03;;;;;;;1.40;1.30;;;8.10;99.90;;;;;;4970584;28;20101;-37
2022/10/25 04:56:29;;;;;;;1.05;1.02;;;8.10;99.90;;;;;;4971079;28;20061;-37
2022/10/25 04:58:55;;;;;;;4.43;1.42;;;8.20;99.90;;;;;;4968431;28;20037;-36
2022/10/25 05:01:20;;;;;;;2.08;1.20;;;8.20;99.90;;;;;;4972696;28;20026;-38
2022/10/25 05:03:46;;;;;;;1.83;1.50;;;8.10;99.90;;;;;;4967873;28;21039;-38
2022/10/25 05:06:15;;;;;;;1.35;1.25;;;8.10;99.90;;;;;;4972012;28;20078;-35
2022/10/25 05:08:43;;;;;;;1.60;1.50;;;8.10;99.90;;;;;;4968502;28;20109;-34
2022/10/25 05:11:10;;;;;;;1.55;1.35;;;8.00;99.90;;;;;;4970700;28;20026;-37
2022/10/25 05:13:38;;;;;;;1.40;1.30;;;8.00;99.90;;;;;;4969662;28;20055;-32
2022/10/25 05:16:04;;;;;;;7.05;1.65;;;7.90;99.90;;;;;;4966668;28;20038;-37
2022/10/25 05:18:31;;;;;;;2.67;1.40;;;7.80;99.90;;;;;;4968707;28;20026;-37
2022/10/25 05:20:59;;;;;;;2.17;1.38;;;7.90;99.90;;;;;;4971136;28;20031;-36
2022/10/25 05:23:26;;;;;;;1.20;1.10;;;7.90;99.90;;;;;;4968114;28;20042;-37
2022/10/25 05:26:08;;;;;;;3.05;1.50;;;8.00;99.90;;;;;;4968807;28;20035;-38
2022/10/25 05:28:35;;;;;;;1.70;1.60;;;8.00;99.90;;;;;;4966907;28;20030;-35
2022/10/25 05:31:10;;;;;;;3.35;1.40;;;8.10;99.90;;;;;;4972253;28;20035;-38
2022/10/25 05:33:36;;;;;;;2.22;1.67;;;8.00;99.90;;;;;;4967720;28;20080;-36
2022/10/25 05:36:02;;;;;;;0.93;0.90;;;8.10;99.90;;;;;;4969284;28;20026;-35
2022/10/25 05:38:29;;;;;;;0.75;0.75;;;8.10;99.90;;;;;;4967608;28;20435;-38
2022/10/25 05:40:56;;;;;;;0.73;0.73;;;8.00;99.90;;;;;;4971090;28;20645;-37
2022/10/25 05:43:22;;;;;;;0.90;0.90;;;8.00;99.90;;;;;;4970451;28;20729;-37
2022/10/25 05:45:48;;;;;;;0.80;0.80;;;8.00;99.90;;;;;;4968389;28;20113;-35
2022/10/25 05:48:13;;;;;;;1.00;0.90;;;7.90;99.90;;;;;;4969645;28;20034;-38
2022/10/25 05:50:39;;;;;;;1.23;1.13;;;7.90;99.90;;;;;;4967791;28;20030;-38
2022/10/25 05:53:05;;;;;;;1.40;1.30;;;8.00;99.90;;;;;;4968316;28;20110;-31
2022/10/25 05:55:32;;;;;;;6.38;2.30;;;8.10;99.90;;;;;;4966537;28;20043;-38
2022/10/25 05:57:58;;;;;;;5.33;3.30;;;8.20;99.90;;;;;;4968310;28;20019;-35
2022/10/25 06:00:24;;;;;;;3.92;2.45;;;8.20;99.90;;;;;;4967288;28;20058;-42
2022/10/25 06:02:49;;;;;;;6.15;3.67;;;8.20;99.90;;;;;;4952717;28;20030;-38
2022/10/25 06:05:15;;;;;;;6.60;3.05;;;8.10;99.90;;;;;;4969514;28;20027;-38
2022/10/25 06:07:40;;;;;;;3.55;1.70;;;8.10;99.90;;;;;;4968129;28;20118;-37
2022/10/25 06:10:06;;;;;;;2.63;1.67;;;8.00;99.90;;;;;;4967124;28;20123;-34
2022/10/25 06:12:32;;;;;;;1.60;1.42;;;7.90;99.90;;;;;;4971992;28;20027;-38
2022/10/25 06:14:57;;;;;;;1.92;1.40;;;7.80;99.90;;;;;;4969656;28;20060;-36
2022/10/25 06:17:23;;;;;;;1.17;1.10;;;7.90;99.90;;;;;;4969580;28;20042;-29
2022/10/25 06:19:49;;;;;;;1.70;1.10;;;7.80;99.90;;;;;;4968137;28;20031;-34
2022/10/25 06:22:14;;;;;;;1.40;1.30;;;7.70;99.90;;;;;;4970889;28;20058;-38
2022/10/25 06:24:40;;;;;;;3.03;1.58;;;7.60;99.90;;;;;;4970045;28;20038;-32
2022/10/25 06:27:05;;;;;;;1.20;1.10;;;7.50;99.90;;;;;;4968942;28;21491;-32
2022/10/25 06:29:31;;;;;;;1.52;1.25;;;7.30;99.90;;;;;;4969183;28;20038;-38
2022/10/25 06:31:56;;;;;;;1.75;1.17;;;7.30;99.90;;;;;;4967548;28;20039;-37
2022/10/25 06:34:22;;;;;;;2.15;1.50;;;7.30;99.90;;;;;;4967668;28;20081;-37
2022/10/25 06:36:48;;;;;;;2.05;1.40;;;7.30;99.90;;;;;;4967042;28;20026;-37
2022/10/25 06:39:13;;;;;;;1.40;1.30;;;7.40;99.90;;;;;;4969445;28;20023;-32
2022/10/25 06:41:39;;;;;;;2.88;2.55;;;7.50;99.90;;;;;;4963250;28;20113;-37
2022/10/25 06:44:06;;;;;;;4.55;2.10;;;7.60;99.90;;;;;;4968004;28;20027;-34
2022/10/25 06:46:33;;;;;;;4.70;2.97;;;7.90;99.90;;;;;;4965566;28;20031;-37
2022/10/25 06:49:00;;;;;;;4.55;2.22;;;8.10;99.90;;;;;;4968500;28;20035;-35
2022/10/25 06:51:27;;;;;;;4.35;2.40;;;8.30;99.90;;;;;;4968931;28;20143;-37
2022/10/25 06:53:58;;;;;;;3.53;2.55;;;8.30;99.90;;;;;;4969253;28;20503;-38
2022/10/25 06:56:24;;;;;;;2.95;2.40;;;8.40;99.90;;;;;;4967813;28;20053;-38
2022/10/25 06:58:50;;;;;;;4.28;1.77;;;8.40;99.90;;;;;;4968056;28;20117;-36
2022/10/25 07:01:18;;;;;;;2.78;1.90;;;8.40;99.90;;;;;;4966504;28;20043;-38
2022/10/25 07:03:45;;;;;;;5.30;2.00;;;8.50;99.90;;;;;;4968746;28;20031;-29
2022/10/25 07:06:15;;;;;;;5.20;1.85;;;8.50;99.90;;;;;;4965815;28;20130;-38
2022/10/25 07:08:43;;;;;;;3.15;2.00;;;8.70;99.90;;;;;;4972728;28;20034;-38
2022/10/25 07:11:16;;;;;;;2.45;2.22;;;8.80;99.90;;;;;;4970235;28;20034;-33
2022/10/25 07:13:42;;;;;;;2.05;1.85;;;9.00;99.90;;;;;;4971128;28;20042;-35
2022/10/25 07:16:11;;;;;;;2.15;1.92;;;9.30;99.90;;;;;;4973335;28;20031;-37
2022/10/25 07:18:36;;;;;;;;;;;9.50;99.90;;;;;;4972699;28;20046;-35
2022/10/25 07:21:09;;;;;;;4.88;1.77;;;9.70;99.90;;;;;;4971665;28;19914;-37
2022/10/25 07:23:40;;;;;;;7.07;2.10;;;9.90;99.90;;;;;;4974616;28;20449;-36
2022/10/25 07:26:09;;;;;;;1.77;1.67;;;9.90;99.90;;;;;;4973468;28;20031;-38
2022/10/25 07:28:34;;;;;;;2.15;1.88;;;10.10;99.90;;;;;;4969329;28;20113;-34
2022/10/25 07:31:00;;;;;;;3.83;2.05;;;10.20;99.90;;;;;;4969651;28;20138;-37
2022/10/25 07:33:25;;;;;;;2.78;2.08;;;10.30;99.90;;;;;;4968204;28;20035;-38
2022/10/25 07:35:51;;;;;;;5.25;2.13;;;10.40;99.90;;;;;;4969620;28;20030;-33
2022/10/25 07:38:17;;;;;;;2.25;1.67;;;10.50;99.90;;;;;;4973286;28;20046;-35
2022/10/25 07:40:42;;;;;;;3.28;2.13;;;10.50;99.90;;;;;;4971718;28;20109;-37
2022/10/25 07:43:08;;;;;;;2.28;2.08;;;10.50;99.90;;;;;;4972828;28;20035;-38
2022/10/25 07:45:35;;;;;;;5.68;2.03;;;10.60;99.90;;;;;;4971745;28;20039;-33
2022/10/25 07:48:00;;;;;;;3.35;1.90;;;10.70;99.90;;;;;;4968790;28;20026;-37
2022/10/25 07:50:26;;;;;;;3.80;2.05;;;10.80;99.90;;;;;;4968594;28;20093;-32
2022/10/25 07:52:53;;;;;;;1.80;1.70;;;10.90;99.90;;;;;;4970491;28;20026;-32
2022/10/25 07:55:19;;;;;;;3.63;2.10;;;11.00;99.90;;;;;;4967934;28;20495;-33
2022/10/25 07:57:45;;;;;;;2.67;2.10;;;11.00;99.90;;;;;;4972937;28;20284;-38
2022/10/25 08:00:11;;;;;;;2.63;1.88;;;11.00;99.90;;;;;;4971554;28;20480;-34
2022/10/25 08:02:36;;;;;;;1.92;1.83;;;11.00;99.90;;;;;;4968451;28;20042;-34
2022/10/25 08:05:02;;;;;;;2.42;1.80;;;11.10;99.90;;;;;;4973077;28;20505;-35
2022/10/25 08:07:27;;;;;;;3.53;1.73;;;11.20;99.90;;;;;;4970859;28;20042;-38
2022/10/25 08:09:53;;;;;;;2.20;2.00;;;11.30;99.90;;;;;;4968868;28;20161;-37
2022/10/25 08:12:19;;;;;;;2.25;1.70;;;11.50;99.90;;;;;;4969653;28;20476;-36
2022/10/25 08:14:44;;;;;;;4.35;1.80;;;11.70;99.90;;;;;;4969582;28;20034;-38
2022/10/25 08:17:10;;;;;;;3.17;2.13;;;11.80;99.90;;;;;;4971121;28;20122;-37
2022/10/25 08:19:36;;;;;;;2.10;1.63;;;11.90;99.90;;;;;;4974723;28;20019;-37
2022/10/25 08:22:01;;;;;;;1.85;1.65;;;12.10;99.90;;;;;;4971269;28;20678;-31
2022/10/25 08:24:27;;;;;;;3.13;1.98;;;12.20;99.90;;;;;;4970707;28;20503;-37
2022/10/25 08:26:52;;;;;;;2.15;1.40;;;12.30;99.90;;;;;;4969093;28;20034;-38
2022/10/25 08:29:18;;;;;;;2.38;1.20;;;12.50;99.90;;;;;;4968843;28;20029;-38
2022/10/25 08:31:44;;;;;;;1.70;1.13;;;12.60;99.90;;;;;;4970368;28;20518;-38
2022/10/25 08:34:09;;;;;;;2.78;1.98;;;12.70;99.90;;;;;;4969610;28;20466;-36
2022/10/25 08:36:35;;;;;;;2.45;1.35;;;12.80;99.90;;;;;;4968362;28;20027;-37
2022/10/25 08:39:00;;;;;;;4.20;1.45;;;13.00;99.90;;;;;;4969580;28;20031;-34
2022/10/25 08:41:46;;;;;;;2.00;0.98;;;13.10;99.90;;;;;;4970985;28;20033;-38
2022/10/25 08:44:12;;;;;;;1.83;1.45;;;13.20;99.90;;;;;;4959476;28;20051;-37
2022/10/25 08:46:55;;;;;;;2.75;1.50;;;13.30;99.90;;;;;;4970286;28;20041;-34
2022/10/25 08:49:30;;;;;;;1.80;1.27;;;13.40;99.90;;;;;;4972674;28;20030;-38
2022/10/25 08:51:58;;;;;;;3.33;1.40;;;13.50;99.90;;;;;;4972203;28;20794;-36
2022/10/25 08:54:29;;;;;;;1.42;1.38;;;13.60;99.90;;;;;;4967852;28;20057;-33
2022/10/25 08:57:10;;;;;;;2.22;1.40;;;13.70;99.90;;;;;;4968079;28;20046;-31
2022/10/25 08:59:39;;;;;;;1.83;1.40;;;13.80;99.90;;;;;;4970639;28;20026;-37
2022/10/25 09:02:30;;;;;;;3.13;1.50;;;13.90;99.90;;;;;;4969614;28;20085;-38
2022/10/25 09:04:55;;;;;;;1.13;1.13;;;14.00;99.90;;;;;;4970281;28;20035;-35
2022/10/25 09:07:47;;;;;;;1.52;1.40;;;14.10;99.90;;;;;;4970980;28;20034;-37
2022/10/25 09:10:37;;;;;;;2.28;1.25;;;14.20;99.90;;;;;;4971408;28;20030;-37
2022/10/25 09:13:48;;;;;;;2.70;1.15;;;14.40;99.90;;;;;;4967852;28;20093;-34
2022/10/25 09:16:30;;;;;;;1.60;1.20;;;14.50;99.90;;;;;;4955512;28;20533;-37
2022/10/25 09:18:56;;;;;;;0.80;0.80;;;14.60;99.90;;;;;;4972768;28;20062;-35
2022/10/25 09:21:46;;;;;;;0.95;0.77;;;14.70;99.90;;;;;;4967516;28;20029;-38
2022/10/25 09:24:24;;;;;;;0.90;0.90;;;14.70;99.90;;;;;;4970769;28;20051;-36
2022/10/25 09:26:56;;;;;;;1.33;0.90;;;14.70;99.90;;;;;;4969898;28;20038;-34
2022/10/25 09:29:29;;;;;;;0.95;0.73;;;14.70;99.90;;;;;;4968378;28;20492;-38
2022/10/25 09:31:57;;;;;;;1.13;1.05;;;14.90;99.90;;;;;;4968483;28;20038;-34
2022/10/25 09:34:24;;;;;;;;;;;14.80;99.90;;;;;;4970182;28;20435;-38
2022/10/25 09:37:10;;;;;;;1.25;1.20;;;14.80;99.90;;;;;;4972979;28;19918;-29
2022/10/25 09:40:02;;;;;;;1.00;1.00;;;15.00;99.90;;;;;;4971579;28;20019;-37
2022/10/25 09:42:41;;;;;;;2.63;1.27;;;15.10;99.90;;;;;;4961652;28;20764;-37
2022/10/25 09:45:14;;;;;;;1.48;1.13;;;15.20;99.90;;;;;;4969698;28;20041;-35
2022/10/25 09:47:46;;;;;;;2.05;1.05;;;15.20;99.90;;;;;;4964931;28;20042;-38
2022/10/25 09:50:23;;;;;;;1.73;1.02;;;15.20;99.90;;;;;;4970681;28;20496;-38
2022/10/25 09:53:11;;;;;;;5.00;1.30;;;15.20;99.90;;;;;;4968034;28;20424;-38
2022/10/25 09:56:00;;;;;;;1.83;1.00;;;15.20;99.90;;;;;;4966612;28;20116;-35
2022/10/25 09:58:36;;;;;;;1.10;1.10;;;15.30;99.90;;;;;;4971190;28;20050;-36
2022/10/25 10:01:11;;;;;;;1.38;0.95;;;15.20;99.90;;;;;;4967384;28;20035;-38
2022/10/25 10:03:37;;;;;;;2.92;1.13;;;15.30;99.90;;;;;;4985552;28;20042;-38
2022/10/25 10:06:22;;;;;;;2.55;1.30;;;15.40;99.90;;;;;;4972386;28;20030;-34
2022/10/25 10:08:52;;;;;;;2.30;1.20;;;15.40;99.90;;;;;;4968630;28;20042;-37
2022/10/25 10:11:19;;;;;;;3.05;1.33;;;15.40;99.90;;;;;;4967719;28;20488;-32
2022/10/25 10:13:54;;;;;;;1.60;1.20;;;15.50;99.90;;;;;;4970324;28;20044;-34
2022/10/25 10:16:37;;;;;;;2.75;1.08;;;15.50;99.90;;;;;;4969750;28;20058;-31
2022/10/25 10:19:24;;;;;;;1.98;1.20;;;15.60;99.90;;;;;;4970069;28;20105;-38
2022/10/25 10:21:51;;;;;;;3.95;1.40;;;15.70;99.90;;;;;;4970805;28;20442;-35
2022/10/25 10:24:37;;;;;;;2.58;1.30;;;15.70;99.90;;;;;;4968817;28;20055;-33
2022/10/25 10:27:09;;;;;;;0.82;0.82;;;15.70;99.90;;;;;;4969302;28;20394;-37
2022/10/25 10:29:50;;;;;;;2.78;1.33;;;15.70;99.90;;;;;;4967740;28;20030;-37
2022/10/25 10:32:28;;;;;;;1.50;1.13;;;15.70;99.90;;;;;;4968830;28;20046;-38
2022/10/25 10:34:55;;;;;;;;;;;15.70;99.90;;;;;;4969362;28;20038;-38
2022/10/25 10:37:26;;;;;;;3.15;1.10;;;15.70;99.90;;;;;;4968975;28;19953;-37
2022/10/25 10:39:54;;;;;;;2.58;1.20;;;15.80;99.90;;;;;;4971342;28;20088;-35
2022/10/25 10:42:41;;;;;;;2.25;1.45;;;15.80;99.90;;;;;;4974671;28;20058;-38
2022/10/25 10:45:07;;;;;;;0.88;0.85;;;15.90;99.90;;;;;;4974521;28;20160;-38
2022/10/25 10:47:37;;;;;;;3.70;1.38;;;16.00;99.90;;;;;;4974120;28;20113;-38
2022/10/25 10:50:21;;;;;;;2.75;1.10;;;16.00;99.90;;;;;;4973097;28;20027;-37
2022/10/25 10:52:52;;;;;;;3.25;1.02;;;16.00;99.90;;;;;;4976518;28;20030;-37
2022/10/25 10:55:30;;;;;;;1.23;0.70;;;16.10;99.90;;;;;;4972803;28;20859;-35
2022/10/25 10:58:04;;;;;;;1.17;1.00;;;16.10;99.90;;;;;;4980582;28;20018;-33
2022/10/25 11:00:31;;;;;;;0.90;0.70;;;16.10;99.90;;;;;;4975272;28;20553;-32
2022/10/25 11:02:57;;;;;;;1.98;0.85;;;16.20;99.90;;;;;;4973546;28;20039;-26
2022/10/25 11:05:27;;;;;;;2.70;1.10;;;16.30;99.90;;;;;;4973530;28;20093;-32
2022/10/25 11:07:58;;;;;;;2.97;1.00;;;16.20;99.90;;;;;;4971358;28;20031;-37
2022/10/25 11:10:26;;;;;;;2.67;0.90;;;16.30;99.90;;;;;;4972337;28;20506;-38
2022/10/25 11:13:11;;;;;;;1.77;0.70;;;16.40;99.90;;;;;;4973991;28;20023;-34
2022/10/25 11:15:48;;;;;;;1.30;0.75;;;16.50;99.90;;;;;;4971312;28;20023;-32
2022/10/25 11:18:14;;;;;;;2.07;0.90;;;16.40;99.90;;;;;;4971172;28;20034;-38
2022/10/25 11:21:26;;;;;;;2.38;0.88;;;16.50;99.90;;;;;;4971878;28;20288;-34
2022/10/25 11:24:00;;;;;;;1.48;0.80;;;16.50;99.90;;;;;;4942428;28;20091;-36
2022/10/25 11:26:36;;;;;;;2.25;0.95;;;16.60;99.90;;;;;;4973932;28;20035;-32
2022/10/25 11:29:16;;;;;;;0.65;0.60;;;16.60;99.90;;;;;;4975582;28;20480;-37
2022/10/25 11:32:04;;;;;;;3.38;0.82;;;16.60;99.90;;;;;;4972995;28;20510;-37
2022/10/25 11:34:56;;;;;;;0.68;0.68;;;16.70;99.90;;;;;;4974296;28;20569;-33
2022/10/25 11:37:36;;;;;;;1.27;0.93;;;16.70;99.90;;;;;;4970327;28;20022;-37
2022/10/25 11:40:20;;;;;;;1.92;0.90;;;16.70;99.90;;;;;;4972327;28;20085;-36
2022/10/25 11:42:55;;;;;;;1.27;0.70;;;16.70;99.90;;;;;;4973999;28;20113;-31
2022/10/25 11:45:29;;;;;;;1.08;0.60;;;16.90;99.90;;;;;;4970992;28;20042;-32
2022/10/25 11:48:20;;;;;;;0.60;0.60;;;16.90;96.20;;;;;;4974553;28;22026;-37
2022/10/25 11:51:09;;;;;;;1.05;0.95;;;16.90;94.40;;;;;;4972394;28;20116;-35
2022/10/25 11:54:11;;;;;;;0.90;0.60;;;16.80;94.80;;;;;;4974471;28;20015;-38
2022/10/25 11:57:01;;;;;;;1.90;0.85;;;16.80;93.40;;;;;;4970363;28;20039;-37
2022/10/25 11:59:50;;;;;;;1.35;0.50;;;16.70;97.60;;;;;;4971008;28;20030;-35
2022/10/25 12:02:34;;;;;;;0.45;0.30;;;16.60;93.30;;;;;;4971860;28;20034;-38
2022/10/25 12:05:02;;;;;;;0.93;0.65;;;16.60;92.10;;;;;;4971325;28;20101;-37
2022/10/25 12:07:30;;;;;;;2.92;0.70;;;16.50;94.60;;;;;;4971722;28;20035;-37
2022/10/25 12:10:24;;;;;;;1.00;0.50;;;16.40;96.80;;;;;;4973094;28;20027;-32
2022/10/25 12:13:03;;;;;;;2.05;0.73;;;16.30;95.20;;;;;;4971871;28;20043;-37
2022/10/25 12:15:54;;;;;;;1.70;0.60;;;16.20;96.20;;;;;;4971853;28;20113;-37
2022/10/25 12:18:39;;;;;;;2.28;1.23;;;16.20;99.20;;;;;;4970798;28;20058;-38
2022/10/25 12:21:06;;;;;;;1.17;0.75;;;16.30;98.90;;;;;;4970283;28;20358;-38
2022/10/25 12:23:42;;;;;;;4.53;0.93;;;16.40;93.70;;;;;;4972918;28;20554;-34
2022/10/25 12:26:21;;;;;;;1.80;0.60;;;16.40;95.60;;;;;;4952897;28;20034;-38
2022/10/25 12:28:48;;;;;;;2.50;0.45;;;16.40;94.80;;;;;;4971400;28;20519;-38
2022/10/25 12:31:22;;;;;;;0.90;0.60;;;16.30;95.40;;;;;;4969432;28;20097;-38
2022/10/25 12:34:06;;;;;;;3.50;0.82;;;16.20;95.70;;;;;;4971310;28;20058;-32
2022/10/25 12:36:42;;;;;;;0.70;0.70;;;16.10;95.10;;;;;;4972149;28;20125;-38
2022/10/25 12:39:19;;;;;;;1.88;0.90;;;16.20;93.80;;;;;;4973849;28;20428;-37
2022/10/25 12:41:50;;;;;;;1.05;0.75;;;16.20;95.40;;;;;;4973628;28;20042;-37
2022/10/25 12:44:47;;;;;;;1.10;0.75;;;16.20;98.50;;;;;;4971386;28;20034;-37
2022/10/25 12:47:57;;;;;;;0.50;0.50;;;16.30;97.10;;;;;;4972975;28;20039;-31
2022/10/25 12:50:43;;;;;;;1.55;0.98;;;16.50;96.10;;;;;;4973247;28;20057;-35
2022/10/25 12:53:30;;;;;;;1.00;0.60;;;16.70;94.50;;;;;;4971034;28;20113;-38
2022/10/25 12:56:30;;;;;;;0.55;0.50;;;16.90;91.50;;;;;;4971299;28;20798;-36
2022/10/25 12:59:01;;;;;;;2.42;0.68;;;16.90;93.80;;;;;;4968530;28;20023;-37
2022/10/25 13:01:42;;;;;;;1.98;0.60;;;17.00;90.90;;;;;;4967429;28;20037;-36
2022/10/25 13:04:40;;;;;;;0.75;0.65;;;17.10;90.40;;;;;;4967795;28;20040;-37
2022/10/25 13:07:06;;;;;;;1.15;0.50;;;17.10;93.20;;;;;;4972232;28;20035;-37
2022/10/25 13:09:34;;;;;;;2.83;0.55;;;17.20;94.00;;;;;;4953227;28;20126;-37
2022/10/25 13:12:01;;;;;;;;;;;17.20;95.10;;;;;;4973130;28;20046;-38
2022/10/25 13:14:34;;;;;;;0.68;0.32;;;17.20;92.40;;;;;;4970199;28;19917;-36
2022/10/25 13:17:17;;;;;;;0.47;0.40;;;17.30;91.90;;;;;;4972081;28;20403;-37